Time;durP1;ratioP1;P1;durP2;ratioP2;P2;SDS_P1;SDS_P2;PMS_P1;PMS_P2;Temp;Humidity;BMP_temperature;BMP_pressure;BME280_temperature;BME280_humidity;BME280_pressure;Samples;Min_cycle;Max_cycle;Signal;HPM_P1;HPM_P2
2022/03/12 00:00:00;;;;;;;7.53;5.03;;;;;;;;;;5081384;28;20228;-56
2022/03/12 00:02:29;;;;;;;4.83;4.20;;;;;;;;;;5068626;28;20194;-56
2022/03/12 00:04:56;;;;;;;6.23;4.60;;;;;;;;;;5080786;28;20516;-57
2022/03/12 00:07:22;;;;;;;8.13;4.47;;;;;;;;;;5088918;28;20195;-56
2022/03/12 00:09:48;;;;;;;4.83;3.77;;;;;;;;;;5086892;28;20263;-57
2022/03/12 00:12:19;;;;;;;4.97;4.27;;;;;;;;;;5068646;28;20216;-56
2022/03/12 00:14:48;;;;;;;5.47;4.83;;;;;;;;;;5082353;28;20188;-58
2022/03/12 00:17:15;;;;;;;6.10;4.67;;;;;;;;;;5054548;28;20187;-57
2022/03/12 00:19:41;;;;;;;4.70;4.00;;;;;;;;;;5066678;28;20561;-57
2022/03/12 00:22:08;;;;;;;5.17;3.97;;;;;;;;;;5054387;28;20260;-56
2022/03/12 00:24:40;;;;;;;6.43;4.70;;;;;;;;;;5077516;28;20696;-56
2022/03/12 00:27:08;;;;;;;5.73;4.40;;;;;;;;;;5070167;28;20182;-57
2022/03/12 00:29:35;;;;;;;7.80;4.90;;;;;;;;;;5088556;28;20258;-57
2022/03/12 00:32:03;;;;;;;5.67;5.07;;;;;;;;;;5085404;28;20207;-56
2022/03/12 00:34:30;;;;;;;5.33;4.83;;;;;;;;;;5073621;28;20235;-56
2022/03/12 00:36:56;;;;;;;7.03;4.20;;;;;;;;;;5067245;28;20245;-56
2022/03/12 00:39:22;;;;;;;6.43;4.90;;;;;;;;;;5080238;28;20188;-56
2022/03/12 00:41:49;;;;;;;4.93;4.43;;;;;;;;;;5085041;28;20187;-57
2022/03/12 00:44:21;;;;;;;5.80;5.03;;;;;;;;;;5076106;28;20524;-56
2022/03/12 00:46:48;;;;;;;5.47;4.60;;;;;;;;;;5076420;28;20183;-56
2022/03/12 00:49:14;;;;;;;5.80;4.20;;;;;;;;;;5066975;28;20184;-59
2022/03/12 00:51:41;;;;;;;5.47;4.97;;;;;;;;;;5089229;28;20282;-57
2022/03/12 00:54:07;;;;;;;6.03;5.03;;;;;;;;;;5083358;28;20201;-55
2022/03/12 00:56:34;;;;;;;7.47;4.80;;;;;;;;;;5061548;28;20200;-56
2022/03/12 00:59:00;;;;;;;5.27;4.67;;;;;;;;;;5074557;28;20180;-57
2022/03/12 01:01:27;;;;;;;8.20;4.53;;;;;;;;;;5081116;28;20444;-57
2022/03/12 01:03:53;;;;;;;4.80;4.30;;;;;;;;;;5066195;28;20179;-56
2022/03/12 01:06:19;;;;;;;5.80;4.67;;;;;;;;;;5080803;28;20358;-59
2022/03/12 01:08:49;;;;;;;6.83;4.67;;;;;;;;;;5057222;28;20230;-58
2022/03/12 01:11:15;;;;;;;5.33;4.80;;;;;;;;;;5061718;28;20745;-56
2022/03/12 01:13:42;;;;;;;5.77;4.80;;;;;;;;;;5063457;28;20184;-56
2022/03/12 01:16:08;;;;;;;4.93;4.43;;;;;;;;;;5069151;28;20186;-56
2022/03/12 01:18:37;;;;;;;6.00;5.07;;;;;;;;;;5066906;28;20639;-56
2022/03/12 01:21:07;;;;;;;6.53;4.77;;;;;;;;;;5087487;28;20246;-56
2022/03/12 01:23:33;;;;;;;6.90;4.90;;;;;;;;;;5062075;28;20178;-56
2022/03/12 01:26:00;;;;;;;6.67;4.70;;;;;;;;;;5067457;28;20204;-57
2022/03/12 01:28:26;;;;;;;5.93;5.07;;;;;;;;;;5057955;28;20192;-57
2022/03/12 01:30:54;;;;;;;8.57;4.57;;;;;;;;;;5083382;28;20542;-58
2022/03/12 01:33:20;;;;;;;6.43;4.80;;;;;;;;;;5086623;28;20200;-56
2022/03/12 01:35:47;;;;;;;7.80;4.73;;;;;;;;;;5059663;28;20183;-55
2022/03/12 01:38:14;;;;;;;8.10;4.90;;;;;;;;;;5057112;28;20384;-56
2022/03/12 01:40:40;;;;;;;5.43;4.77;;;;;;;;;;5060691;28;20303;-57
2022/03/12 01:43:06;;;;;;;4.67;4.27;;;;;;;;;;5084923;28;20522;-56
2022/03/12 01:45:35;;;;;;;5.20;4.53;;;;;;;;;;5064617;28;20179;-56
2022/03/12 01:48:02;;;;;;;5.60;5.00;;;;;;;;;;5063501;28;20195;-56
2022/03/12 01:50:36;;;;;;;5.87;5.17;;;;;;;;;;5065397;28;20184;-55
2022/03/12 01:53:07;;;;;;;7.23;4.77;;;;;;;;;;5068930;28;20187;-55
2022/03/12 01:55:37;;;;;;;6.93;4.57;;;;;;;;;;5057854;28;20176;-55
2022/03/12 01:58:04;;;;;;;5.03;4.40;;;;;;;;;;5086105;28;20315;-57
2022/03/12 02:00:41;;;;;;;4.63;4.23;;;;;;;;;;5055152;28;20500;-57
2022/03/12 02:03:08;;;;;;;6.10;4.70;;;;;;;;;;5051468;28;20179;-57
2022/03/12 02:05:35;;;;;;;6.50;5.67;;;;;;;;;;5055915;28;20171;-56
2022/03/12 02:08:02;;;;;;;5.30;4.80;;;;;;;;;;5064161;28;20207;-56
2022/03/12 02:10:29;;;;;;;5.20;4.70;;;;;;;;;;5074209;28;20583;-56
2022/03/12 02:12:55;;;;;;;4.43;4.03;;;;;;;;;;5056222;28;20306;-57
2022/03/12 02:15:23;;;;;;;6.73;5.13;;;;;;;;;;5062920;28;20582;-55
2022/03/12 02:17:52;;;;;;;5.17;4.30;;;;;;;;;;5057234;28;20183;-55
2022/03/12 02:20:19;;;;;;;4.73;4.20;;;;;;;;;;5060919;28;20192;-55
2022/03/12 02:22:51;;;;;;;5.53;4.83;;;;;;;;;;5077837;28;20590;-57
2022/03/12 02:25:17;;;;;;;5.37;4.87;;;;;;;;;;5055037;28;20168;-56
2022/03/12 02:27:43;;;;;;;5.47;4.53;;;;;;;;;;5066719;28;20172;-57
2022/03/12 02:30:10;;;;;;;5.50;5.00;;;;;;;;;;5051370;28;20181;-56
2022/03/12 02:32:37;;;;;;;6.13;4.50;;;;;;;;;;5075386;28;20655;-56
2022/03/12 02:35:07;;;;;;;6.57;4.83;;;;;;;;;;5063363;28;20263;-57
2022/03/12 02:37:33;;;;;;;7.90;4.67;;;;;;;;;;5079768;28;20946;-55
2022/03/12 02:40:01;;;;;;;5.20;4.50;;;;;;;;;;5069230;28;20694;-55
2022/03/12 02:42:28;;;;;;;8.20;5.70;;;;;;;;;;5070550;28;20650;-57
2022/03/12 02:44:54;;;;;;;6.10;4.70;;;;;;;;;;5069770;28;20187;-56
2022/03/12 02:47:22;;;;;;;6.00;4.87;;;;;;;;;;5079437;28;20769;-55
2022/03/12 02:49:53;;;;;;;7.73;4.93;;;;;;;;;;5069772;28;20183;-56
2022/03/12 02:52:21;;;;;;;5.10;4.57;;;;;;;;;;5063953;28;20176;-56
2022/03/12 02:54:49;;;;;;;7.47;5.00;;;;;;;;;;5062629;28;20179;-57
2022/03/12 02:57:15;;;;;;;7.47;4.90;;;;;;;;;;5069185;28;20205;-56
2022/03/12 02:59:43;;;;;;;5.37;4.43;;;;;;;;;;5057622;28;20294;-56
2022/03/12 03:02:11;;;;;;;6.83;5.23;;;;;;;;;;5061267;28;20521;-56
2022/03/12 03:04:40;;;;;;;6.33;4.63;;;;;;;;;;5090012;28;20701;-55
2022/03/12 03:07:11;;;;;;;6.00;5.40;;;;;;;;;;5061958;28;20179;-56
2022/03/12 03:09:37;;;;;;;6.10;4.90;;;;;;;;;;5056140;28;20180;-56
2022/03/12 03:12:09;;;;;;;6.50;4.73;;;;;;;;;;5088190;28;20215;-55
2022/03/12 03:14:36;;;;;;;8.93;5.17;;;;;;;;;;5072988;28;20191;-55
2022/03/12 03:17:03;;;;;;;6.33;5.10;;;;;;;;;;5095603;28;20183;-55
2022/03/12 03:19:31;;;;;;;5.93;5.17;;;;;;;;;;5054287;28;20176;-54
2022/03/12 03:21:58;;;;;;;6.53;5.37;;;;;;;;;;5081922;28;20179;-56
2022/03/12 03:24:24;;;;;;;9.17;5.23;;;;;;;;;;5071705;28;20584;-55
2022/03/12 03:26:53;;;;;;;6.00;5.03;;;;;;;;;;5083682;28;20180;-56
2022/03/12 03:29:19;;;;;;;7.23;5.37;;;;;;;;;;5068825;28;20183;-55
2022/03/12 03:31:46;;;;;;;5.90;5.03;;;;;;;;;;5062685;28;20183;-55
2022/03/12 03:34:13;;;;;;;5.40;4.47;;;;;;;;;;5078615;28;20188;-57
2022/03/12 03:36:40;;;;;;;5.33;4.83;;;;;;;;;;5084122;28;20678;-56
2022/03/12 03:39:07;;;;;;;6.80;5.33;;;;;;;;;;5059660;28;20548;-55
2022/03/12 03:41:33;;;;;;;5.87;4.80;;;;;;;;;;5056036;28;20200;-55
2022/03/12 03:44:00;;;;;;;5.83;4.53;;;;;;;;;;5079873;28;20215;-55
2022/03/12 03:46:26;;;;;;;6.23;4.80;;;;;;;;;;5064800;28;20226;-56
2022/03/12 03:48:54;;;;;;;6.73;4.87;;;;;;;;;;5070182;28;20179;-55
2022/03/12 03:51:21;;;;;;;6.03;5.27;;;;;;;;;;5085767;28;20188;-56
2022/03/12 03:53:47;;;;;;;5.77;4.67;;;;;;;;;;5055670;28;20194;-56
2022/03/12 03:56:13;;;;;;;7.03;5.30;;;;;;;;;;5079734;28;20607;-57
2022/03/12 03:58:40;;;;;;;7.27;5.63;;;;;;;;;;5066077;28;20220;-56
2022/03/12 04:01:09;;;;;;;5.10;4.60;;;;;;;;;;5062629;28;20243;-56
2022/03/12 04:03:37;;;;;;;7.57;5.43;;;;;;;;;;5078636;28;20399;-56
2022/03/12 04:06:03;;;;;;;8.57;5.20;;;;;;;;;;5079622;28;20180;-56
2022/03/12 04:08:30;;;;;;;6.17;5.20;;;;;;;;;;5083063;28;20593;-56
2022/03/12 04:10:57;;;;;;;6.83;5.27;;;;;;;;;;5068399;28;20219;-57
2022/03/12 04:13:23;;;;;;;6.87;4.67;;;;;;;;;;5040601;28;20243;-56
2022/03/12 04:15:51;;;;;;;5.67;4.90;;;;;;;;;;5052655;28;20625;-56
2022/03/12 04:18:21;;;;;;;6.80;6.03;;;;;;;;;;5066134;28;20254;-57
2022/03/12 04:20:48;;;;;;;6.60;5.13;;;;;;;;;;5063937;28;20512;-56
2022/03/12 04:23:18;;;;;;;7.70;5.43;;;;;;;;;;5060242;28;20198;-56
2022/03/12 04:25:46;;;;;;;6.90;5.33;;;;;;;;;;5061783;28;20184;-55
2022/03/12 04:28:12;;;;;;;6.33;5.17;;;;;;;;;;5038574;28;20267;-55
2022/03/12 04:30:38;;;;;;;6.23;5.57;;;;;;;;;;5071732;28;20275;-55
2022/03/12 04:33:07;;;;;;;5.80;5.20;;;;;;;;;;5042373;28;20185;-55
2022/03/12 04:35:34;;;;;;;6.40;5.10;;;;;;;;;;5056535;28;20218;-56
2022/03/12 04:38:01;;;;;;;7.00;5.43;;;;;;;;;;5061357;28;20181;-56
2022/03/12 04:40:27;;;;;;;6.33;4.43;;;;;;;;;;5034536;28;20197;-55
2022/03/12 04:42:54;;;;;;;6.80;5.33;;;;;;;;;;5038975;28;20181;-57
2022/03/12 04:45:23;;;;;;;6.27;5.23;;;;;;;;;;5036334;28;20233;-55
2022/03/12 04:47:50;;;;;;;6.23;5.13;;;;;;;;;;5066048;28;20663;-56
2022/03/12 04:50:18;;;;;;;6.90;5.30;;;;;;;;;;5055130;28;20187;-54
2022/03/12 04:52:45;;;;;;;6.37;5.17;;;;;;;;;;5044401;28;20259;-55
2022/03/12 04:55:13;;;;;;;6.03;4.83;;;;;;;;;;5062696;28;20200;-55
2022/03/12 04:57:39;;;;;;;6.90;5.77;;;;;;;;;;5056583;28;20204;-56
2022/03/12 05:00:06;;;;;;;7.47;5.53;;;;;;;;;;5053028;28;20205;-55
2022/03/12 05:02:33;;;;;;;7.40;6.07;;;;;;;;;;5046456;28;20267;-55
2022/03/12 05:05:00;;;;;;;5.53;5.00;;;;;;;;;;5036658;28;20706;-55
2022/03/12 05:07:26;;;;;;;9.90;5.57;;;;;;;;;;5043806;28;20180;-54
2022/03/12 05:09:56;;;;;;;6.13;5.53;;;;;;;;;;5059353;28;20785;-54
2022/03/12 05:12:24;;;;;;;6.77;5.40;;;;;;;;;;5057566;28;20235;-55
2022/03/12 05:14:51;;;;;;;7.40;6.00;;;;;;;;;;5085974;28;20465;-55
2022/03/12 05:17:18;;;;;;;5.90;4.80;;;;;;;;;;5087171;28;20180;-54
2022/03/12 05:19:45;;;;;;;5.20;4.70;;;;;;;;;;5065064;28;20658;-55
2022/03/12 05:22:11;;;;;;;8.60;5.63;;;;;;;;;;5074291;28;20184;-54
2022/03/12 05:24:38;;;;;;;6.83;5.33;;;;;;;;;;5080835;28;20178;-57
2022/03/12 05:27:14;;;;;;;7.20;5.70;;;;;;;;;;5065722;28;20168;-55
2022/03/12 05:29:41;;;;;;;6.80;5.87;;;;;;;;;;5088275;28;20321;-56
2022/03/12 05:32:11;;;;;;;6.57;5.83;;;;;;;;;;5068981;28;20164;-55
2022/03/12 05:34:37;;;;;;;5.90;4.57;;;;;;;;;;5068252;28;20171;-54
2022/03/12 05:37:08;;;;;;;7.43;5.20;;;;;;;;;;5066578;28;20581;-55
2022/03/12 05:39:34;;;;;;;6.47;5.33;;;;;;;;;;5068179;28;20658;-56
2022/03/12 05:42:03;;;;;;;5.87;5.27;;;;;;;;;;5086016;28;20611;-55
2022/03/12 05:44:30;;;;;;;6.63;5.37;;;;;;;;;;5068352;28;20244;-56
2022/03/12 05:46:56;;;;;;;6.33;5.27;;;;;;;;;;5079225;28;20222;-55
2022/03/12 05:49:22;;;;;;;7.57;5.00;;;;;;;;;;5074763;28;20204;-55
2022/03/12 05:51:48;;;;;;;6.70;5.50;;;;;;;;;;5068540;28;20184;-54
2022/03/12 05:54:15;;;;;;;7.13;6.30;;;;;;;;;;5059170;28;20242;-56
2022/03/12 05:56:41;;;;;;;7.97;5.30;;;;;;;;;;5056404;28;20614;-55
2022/03/12 05:59:08;;;;;;;8.60;5.23;;;;;;;;;;5052760;28;20177;-55
2022/03/12 06:01:34;;;;;;;5.93;5.23;;;;;;;;;;5064684;28;20746;-55
2022/03/12 06:04:01;;;;;;;6.23;5.27;;;;;;;;;;5081541;28;20172;-55
2022/03/12 06:06:30;;;;;;;5.73;5.20;;;;;;;;;;5054594;28;20267;-55
2022/03/12 06:08:57;;;;;;;6.30;5.70;;;;;;;;;;5061188;28;20186;-55
2022/03/12 06:11:25;;;;;;;8.23;5.67;;;;;;;;;;5061400;28;20223;-56
2022/03/12 06:13:54;;;;;;;5.77;5.17;;;;;;;;;;5079701;28;20203;-56
2022/03/12 06:16:21;;;;;;;6.57;5.00;;;;;;;;;;5050222;28;20185;-55
2022/03/12 06:18:47;;;;;;;8.13;5.63;;;;;;;;;;5075348;28;20589;-55
2022/03/12 06:21:13;;;;;;;5.60;4.80;;;;;;;;;;5064009;28;20593;-57
2022/03/12 06:23:39;;;;;;;6.20;5.27;;;;;;;;;;5069279;28;20168;-55
2022/03/12 06:26:15;;;;;;;5.87;5.27;;;;;;;;;;5065716;28;20184;-55
2022/03/12 06:28:45;;;;;;;6.10;5.27;;;;;;;;;;5085428;28;20191;-54
2022/03/12 06:31:14;;;;;;;10.07;6.10;;;;;;;;;;5064542;28;20176;-55
2022/03/12 06:33:42;;;;;;;9.90;5.90;;;;;;;;;;5064113;28;20195;-56
2022/03/12 06:36:09;;;;;;;5.50;4.93;;;;;;;;;;5089620;28;20631;-55
2022/03/12 06:38:37;;;;;;;6.80;5.30;;;;;;;;;;5062195;28;20187;-55
2022/03/12 06:41:03;;;;;;;6.07;5.20;;;;;;;;;;5083087;28;20271;-55
2022/03/12 06:43:31;;;;;;;5.30;4.80;;;;;;;;;;5091324;28;20177;-56
2022/03/12 06:45:59;;;;;;;6.87;5.77;;;;;;;;;;5081562;28;20210;-56
2022/03/12 06:48:25;;;;;;;5.17;4.20;;;;;;;;;;5083506;28;20689;-57
2022/03/12 06:50:52;;;;;;;6.27;4.90;;;;;;;;;;5069469;28;20175;-56
2022/03/12 06:53:19;;;;;;;5.70;5.07;;;;;;;;;;5088949;28;20172;-57
2022/03/12 06:55:45;;;;;;;10.50;5.70;;;;;;;;;;5090298;28;20507;-56
2022/03/12 06:58:11;;;;;;;6.57;5.70;;;;;;;;;;5089135;28;20207;-57
2022/03/12 07:00:38;;;;;;;6.73;5.57;;;;;;;;;;5071970;28;20691;-56
2022/03/12 07:03:05;;;;;;;6.57;5.47;;;;;;;;;;5067263;28;20271;-55
2022/03/12 07:05:31;;;;;;;7.17;5.07;;;;;;;;;;5068160;28;20184;-56
2022/03/12 07:07:57;;;;;;;5.07;4.40;;;;;;;;;;5058295;28;20565;-56
2022/03/12 07:10:24;;;;;;;6.17;5.30;;;;;;;;;;5090485;28;20184;-56
2022/03/12 07:12:51;;;;;;;5.77;4.97;;;;;;;;;;5072237;28;20703;-57
2022/03/12 07:15:18;;;;;;;5.97;5.17;;;;;;;;;;5090090;28;20260;-56
2022/03/12 07:17:44;;;;;;;7.17;5.10;;;;;;;;;;5060899;28;20191;-56
2022/03/12 07:20:12;;;;;;;7.87;5.50;;;;;;;;;;5080725;28;21038;-58
2022/03/12 07:22:39;;;;;;;5.23;4.73;;;;;;;;;;5061289;28;20187;-55
2022/03/12 07:25:05;;;;;;;6.93;5.33;;;;;;;;;;5076962;28;20570;-56
2022/03/12 07:27:32;;;;;;;7.00;6.27;;;;;;;;;;5073209;28;20554;-56
2022/03/12 07:30:00;;;;;;;8.00;4.93;;;;;;;;;;5061376;28;20266;-56
2022/03/12 07:32:28;;;;;;;6.37;4.90;;;;;;;;;;5076120;28;20196;-57
2022/03/12 07:34:55;;;;;;;7.00;4.90;;;;;;;;;;5072779;28;20639;-56
2022/03/12 07:37:22;;;;;;;7.80;4.93;;;;;;;;;;5062483;28;20187;-57
2022/03/12 07:39:48;;;;;;;6.90;5.40;;;;;;;;;;5085661;28;20216;-56
2022/03/12 07:42:15;;;;;;;6.53;5.10;;;;;;;;;;5067157;28;20203;-56
2022/03/12 07:44:41;;;;;;;5.40;4.90;;;;;;;;;;5078682;28;20184;-58
2022/03/12 07:47:08;;;;;;;5.93;5.27;;;;;;;;;;5056366;28;20184;-56
2022/03/12 07:49:35;;;;;;;7.17;5.93;;;;;;;;;;5061410;28;20202;-56
2022/03/12 07:52:02;;;;;;;7.67;4.97;;;;;;;;;;5065951;28;20210;-57
2022/03/12 07:54:28;;;;;;;12.70;5.90;;;;;;;;;;5081065;28;20184;-56
2022/03/12 07:56:54;;;;;;;9.33;5.63;;;;;;;;;;5072774;28;20249;-56
2022/03/12 07:59:20;;;;;;;10.13;5.67;;;;;;;;;;5090155;28;20652;-56
2022/03/12 08:01:48;;;;;;;8.47;5.17;;;;;;;;;;5083728;28;20211;-57
2022/03/12 08:04:14;;;;;;;8.50;4.90;;;;;;;;;;5080700;28;20248;-56
2022/03/12 08:06:42;;;;;;;6.73;5.10;;;;;;;;;;5086190;28;20246;-56
2022/03/12 08:09:09;;;;;;;8.67;5.27;;;;;;;;;;5089281;28;20191;-58
2022/03/12 08:11:35;;;;;;;8.00;5.50;;;;;;;;;;5096657;28;20223;-56
2022/03/12 08:14:15;;;;;;;6.50;5.33;;;;;;;;;;5085579;28;20855;-57
2022/03/12 08:16:42;;;;;;;7.10;5.07;;;;;;;;;;5068204;28;20189;-59
2022/03/12 08:19:09;;;;;;;8.33;6.07;;;;;;;;;;5072523;28;20589;-56
2022/03/12 08:21:36;;;;;;;5.57;5.00;;;;;;;;;;5087182;28;21009;-56
2022/03/12 08:24:03;;;;;;;8.07;5.40;;;;;;;;;;5089381;28;20179;-56
2022/03/12 08:26:30;;;;;;;6.27;4.70;;;;;;;;;;5087277;28;20556;-55
2022/03/12 08:28:56;;;;;;;5.90;4.60;;;;;;;;;;5075913;28;20331;-55
2022/03/12 08:31:23;;;;;;;6.57;5.27;;;;;;;;;;5066678;28;20194;-56
2022/03/12 08:33:49;;;;;;;6.83;5.60;;;;;;;;;;5068932;28;20437;-54
2022/03/12 08:36:16;;;;;;;5.30;4.53;;;;;;;;;;5070283;28;20259;-56
2022/03/12 08:38:42;;;;;;;6.80;5.70;;;;;;;;;;5087972;28;20707;-56
2022/03/12 08:41:11;;;;;;;6.53;5.40;;;;;;;;;;5079395;28;20200;-55
2022/03/12 08:43:37;;;;;;;6.13;5.00;;;;;;;;;;5068393;28;20597;-56
2022/03/12 08:46:05;;;;;;;6.57;4.60;;;;;;;;;;5065634;28;20233;-56
2022/03/12 08:48:32;;;;;;;5.73;4.70;;;;;;;;;;5085842;28;20526;-56
2022/03/12 08:50:58;;;;;;;6.23;5.20;;;;;;;;;;5089812;28;20669;-55
2022/03/12 08:53:25;;;;;;;6.70;5.73;;;;;;;;;;5087212;28;20179;-55
2022/03/12 08:55:52;;;;;;;6.20;4.80;;;;;;;;;;5080977;28;20213;-55
2022/03/12 08:58:20;;;;;;;6.00;5.07;;;;;;;;;;5084342;28;20231;-55
2022/03/12 09:00:46;;;;;;;6.60;5.43;;;;;;;;;;5069956;28;20561;-55
2022/03/12 09:03:12;;;;;;;8.47;5.90;;;;;;;;;;5084550;28;20295;-58
2022/03/12 09:05:39;;;;;;;5.13;4.63;;;;;;;;;;5085731;28;20259;-55
2022/03/12 09:08:05;;;;;;;5.77;5.00;;;;;;;;;;5065742;28;20553;-55
2022/03/12 09:10:32;;;;;;;7.97;6.27;;;;;;;;;;5063513;28;20578;-55
2022/03/12 09:12:58;;;;;;;6.67;5.47;;;;;;;;;;5068902;28;20259;-55
2022/03/12 09:15:28;;;;;;;8.40;6.47;;;;;;;;;;5075968;28;20680;-55
2022/03/12 09:17:54;;;;;;;9.40;5.83;;;;;;;;;;5053025;28;20651;-55
2022/03/12 09:20:20;;;;;;;7.10;5.77;;;;;;;;;;5058155;28;20703;-54
2022/03/12 09:22:46;;;;;;;8.03;5.53;;;;;;;;;;5076236;28;20222;-54
2022/03/12 09:25:14;;;;;;;7.97;6.27;;;;;;;;;;5054320;28;20287;-56
2022/03/12 09:27:42;;;;;;;8.10;6.37;;;;;;;;;;5073007;28;20638;-55
2022/03/12 09:30:09;;;;;;;7.80;6.03;;;;;;;;;;5046900;28;20610;-57
2022/03/12 09:32:36;;;;;;;8.13;6.50;;;;;;;;;;5052189;28;20464;-54
2022/03/12 09:35:02;;;;;;;7.00;5.80;;;;;;;;;;5039816;28;20177;-56
2022/03/12 09:37:29;;;;;;;6.57;5.83;;;;;;;;;;5048130;28;20195;-56
2022/03/12 09:39:55;;;;;;;7.60;6.40;;;;;;;;;;5047496;28;20208;-55
2022/03/12 09:42:23;;;;;;;6.20;5.57;;;;;;;;;;5067029;28;20195;-54
2022/03/12 09:44:51;;;;;;;8.00;5.87;;;;;;;;;;5059197;28;20215;-55
2022/03/12 09:47:18;;;;;;;8.13;6.13;;;;;;;;;;5053110;28;20247;-55
2022/03/12 09:49:44;;;;;;;7.20;6.50;;;;;;;;;;5053465;28;20296;-56
2022/03/12 09:52:11;;;;;;;6.87;6.03;;;;;;;;;;5035313;28;20660;-55
2022/03/12 09:54:38;;;;;;;7.23;5.43;;;;;;;;;;5039809;28;20220;-55
2022/03/12 09:57:04;;;;;;;6.77;5.83;;;;;;;;;;5051104;28;20192;-55
2022/03/12 09:59:30;;;;;;;7.13;5.80;;;;;;;;;;5068491;28;20179;-55
2022/03/12 10:01:57;;;;;;;6.70;5.50;;;;;;;;;;5065579;28;20214;-56
2022/03/12 10:04:23;;;;;;;7.57;6.40;;;;;;;;;;5047611;28;20172;-56
2022/03/12 10:06:53;;;;;;;7.30;5.70;;;;;;;;;;5048649;28;20176;-55
2022/03/12 10:09:19;;;;;;;9.83;5.97;;;;;;;;;;5047071;28;20179;-55
2022/03/12 10:11:48;;;;;;;9.77;6.27;;;;;;;;;;5051723;28;20258;-54
2022/03/12 10:14:14;;;;;;;7.27;6.13;;;;;;;;;;5087642;28;20210;-53
2022/03/12 10:16:40;;;;;;;6.43;5.57;;;;;;;;;;5087999;28;20200;-53
2022/03/12 10:19:06;;;;;;;6.30;5.70;;;;;;;;;;5083531;28;20631;-54
2022/03/12 10:21:35;;;;;;;7.23;6.27;;;;;;;;;;5067428;28;20776;-55
2022/03/12 10:24:02;;;;;;;6.13;5.43;;;;;;;;;;5075286;28;20204;-52
2022/03/12 10:26:29;;;;;;;6.97;5.53;;;;;;;;;;5086199;28;20164;-54
2022/03/12 10:28:55;;;;;;;7.83;5.63;;;;;;;;;;5058777;28;20185;-53
2022/03/12 10:31:22;;;;;;;6.23;5.40;;;;;;;;;;5080045;28;20212;-54
2022/03/12 10:33:48;;;;;;;6.33;5.47;;;;;;;;;;5079705;28;20183;-53
2022/03/12 10:36:15;;;;;;;5.97;5.37;;;;;;;;;;5079500;28;20177;-56
2022/03/12 10:38:42;;;;;;;6.27;5.00;;;;;;;;;;5084988;28;20187;-53
2022/03/12 10:41:09;;;;;;;8.33;5.57;;;;;;;;;;5079741;28;20187;-55
2022/03/12 10:44:05;;;;;;;7.17;4.93;;;;;;;;;;5078723;28;20180;-53
2022/03/12 10:46:31;;;;;;;7.40;4.97;;;;;;;;;;5054993;28;20189;-54
2022/03/12 10:49:03;;;;;;;5.77;4.83;;;;;;;;;;5082598;28;20669;-53
2022/03/12 10:51:32;;;;;;;8.33;5.50;;;;;;;;;;5066260;28;20168;-54
2022/03/12 10:54:05;;;;;;;4.93;4.17;;;;;;;;;;5084548;28;20267;-54
2022/03/12 10:56:42;;;;;;;5.40;4.90;;;;;;;;;;5051526;28;20241;-53
2022/03/12 10:59:34;;;;;;;6.77;4.43;;;;;;;;;;5085548;28;20224;-53
2022/03/12 11:02:04;;;;;;;6.17;4.43;;;;;;;;;;5078508;28;20277;-53
2022/03/12 11:04:34;;;;;;;5.00;4.50;;;;;;;;;;5062863;28;20565;-54
2022/03/12 11:07:02;;;;;;;4.53;4.13;;;;;;;;;;5055809;28;20185;-53
2022/03/12 11:09:35;;;;;;;6.80;3.93;;;;;;;;;;5081996;28;20267;-54
2022/03/12 11:12:04;;;;;;;4.97;4.43;;;;;;;;;;5066391;28;20754;-54
2022/03/12 11:14:31;;;;;;;5.10;4.60;;;;;;;;;;5064251;28;20223;-54
2022/03/12 11:16:59;;;;;;;5.33;4.13;;;;;;;;;;5066454;28;20172;-53
2022/03/12 11:19:37;;;;;;;8.27;4.90;;;;;;;;;;5064636;28;20176;-54
2022/03/12 11:22:22;;;;;;;5.70;4.27;;;;;;;;;;5082293;28;20201;-55
2022/03/12 11:24:50;;;;;;;5.90;3.90;;;;;;;;;;5067729;28;20180;-54
2022/03/12 11:27:37;;;;;;;7.77;3.67;;;;;;;;;;5086952;28;20176;-53
2022/03/12 11:30:07;;;;;;;5.60;3.90;;;;;;;;;;5084657;28;20168;-53
2022/03/12 11:32:35;;;;;;;5.07;3.97;;;;;;;;;;5064988;28;20191;-53
2022/03/12 11:35:06;;;;;;;4.07;3.63;;;;;;;;;;5084045;28;20622;-53
2022/03/12 11:37:36;;;;;;;7.37;3.80;;;;;;;;;;5081617;28;20241;-53
2022/03/12 11:40:03;;;;;;;5.30;3.77;;;;;;;;;;5072337;28;20248;-53
2022/03/12 11:42:33;;;;;;;4.53;3.67;;;;;;;;;;5089217;28;20176;-53
2022/03/12 11:45:00;;;;;;;4.97;3.23;;;;;;;;;;5086307;28;20698;-53
2022/03/12 11:47:29;;;;;;;4.73;3.57;;;;;;;;;;5071253;28;20168;-53
2022/03/12 11:49:58;;;;;;;4.73;3.07;;;;;;;;;;5071034;28;20172;-55
2022/03/12 11:52:25;;;;;;;5.90;3.63;;;;;;;;;;5078793;28;20731;-56
2022/03/12 11:54:54;;;;;;;4.70;3.30;;;;;;;;;;5063054;28;20173;-53
2022/03/12 11:57:26;;;;;;;3.97;3.30;;;;;;;;;;5071737;28;20199;-55
2022/03/12 11:59:53;;;;;;;4.17;3.37;;;;;;;;;;5089609;28;20646;-53
2022/03/12 12:02:32;;;;;;;5.10;3.07;;;;;;;;;;5071237;28;20179;-54
2022/03/12 12:05:11;;;;;;;4.23;3.60;;;;;;;;;;5069511;28;20179;-55
2022/03/12 12:07:38;;;;;;;3.70;3.20;;;;;;;;;;5087540;28;20262;-53
2022/03/12 12:10:08;;;;;;;6.43;3.70;;;;;;;;;;5082848;28;20184;-55
2022/03/12 12:12:35;;;;;;;6.03;3.30;;;;;;;;;;5085704;28;20285;-54
2022/03/12 12:15:02;;;;;;;4.53;3.10;;;;;;;;;;5084684;28;20190;-54
2022/03/12 12:17:30;;;;;;;4.17;2.80;;;;;;;;;;5083888;28;20682;-54
2022/03/12 12:19:56;;;;;;;4.63;3.53;;;;;;;;;;5085677;28;20673;-55
2022/03/12 12:22:22;;;;;;;3.90;3.00;;;;;;;;;;5065019;28;20259;-53
2022/03/12 12:24:52;;;;;;;4.23;3.10;;;;;;;;;;5089200;28;20749;-54
2022/03/12 12:27:23;;;;;;;3.23;2.93;;;;;;;;;;5053416;28;20717;-54
2022/03/12 12:29:49;;;;;;;2.97;2.77;;;;;;;;;;5077977;28;20184;-53
2022/03/12 12:32:25;;;;;;;4.30;3.00;;;;;;;;;;5061057;28;20182;-55
2022/03/12 12:35:02;;;;;;;4.10;3.00;;;;;;;;;;5085766;28;20515;-54
2022/03/12 12:37:43;;;;;;;4.23;3.13;;;;;;;;;;5084876;28;20514;-54
2022/03/12 12:40:20;;;;;;;3.40;3.03;;;;;;;;;;5082370;28;20654;-56
2022/03/12 12:42:51;;;;;;;3.80;3.40;;;;;;;;;;5069694;28;20171;-55
2022/03/12 12:45:25;;;;;;;5.30;2.70;;;;;;;;;;5054268;28;20204;-54
2022/03/12 12:48:18;;;;;;;3.07;2.77;;;;;;;;;;5084900;28;20278;-56
2022/03/12 12:51:03;;;;;;;3.63;3.03;;;;;;;;;;5061661;28;20583;-54
2022/03/12 12:53:30;;;;;;;4.43;3.00;;;;;;;;;;5077553;28;20176;-53
2022/03/12 12:56:26;;;;;;;3.63;2.60;;;;;;;;;;5052257;28;20181;-55
2022/03/12 12:58:52;;;;;;;3.20;2.70;;;;;;;;;;5066155;28;20678;-54
2022/03/12 13:01:39;;;;;;;4.97;4.30;;;;;;;;;;5066473;28;20196;-54
2022/03/12 13:04:06;;;;;;;4.73;3.50;;;;;;;;;;5067690;28;20188;-54
2022/03/12 13:06:32;;;;;;;3.73;3.20;;;;;;;;;;5059661;28;20412;-55
2022/03/12 13:09:01;;;;;;;4.33;3.30;;;;;;;;;;5085343;28;20171;-54
2022/03/12 13:11:28;;;;;;;5.93;3.33;;;;;;;;;;5086059;28;20219;-54
2022/03/12 13:13:55;;;;;;;4.13;2.93;;;;;;;;;;5085234;28;20505;-54
2022/03/12 13:16:21;;;;;;;4.20;3.20;;;;;;;;;;5083058;28;20188;-55
2022/03/12 13:18:47;;;;;;;3.53;3.00;;;;;;;;;;5065212;28;20210;-54
2022/03/12 13:21:27;;;;;;;5.67;4.10;;;;;;;;;;5084146;28;20286;-55
2022/03/12 13:23:53;;;;;;;5.07;3.67;;;;;;;;;;5067401;28;20168;-55
2022/03/12 13:26:20;;;;;;;4.53;3.83;;;;;;;;;;5067100;28;20178;-55
2022/03/12 13:28:49;;;;;;;4.60;4.20;;;;;;;;;;5084979;28;20172;-55
2022/03/12 13:31:27;;;;;;;3.50;3.17;;;;;;;;;;5086421;28;20183;-55
2022/03/12 13:34:04;;;;;;;3.43;3.13;;;;;;;;;;5084003;28;20631;-55
2022/03/12 13:36:32;;;;;;;3.73;3.37;;;;;;;;;;5079162;28;20643;-54
2022/03/12 13:38:59;;;;;;;5.50;3.50;;;;;;;;;;5068053;28;20553;-55
2022/03/12 13:41:26;;;;;;;3.90;3.60;;;;;;;;;;5068951;28;20609;-54
2022/03/12 13:43:53;;;;;;;4.00;3.60;;;;;;;;;;5068860;28;20198;-55
2022/03/12 13:46:22;;;;;;;3.80;3.50;;;;;;;;;;5086764;28;20175;-54
2022/03/12 13:49:02;;;;;;;3.90;3.60;;;;;;;;;;5086178;28;20539;-54
2022/03/12 13:51:29;;;;;;;5.03;4.53;;;;;;;;;;5066311;28;20179;-56
2022/03/12 13:53:56;;;;;;;3.60;3.30;;;;;;;;;;5083070;28;20697;-54
2022/03/12 13:56:23;;;;;;;5.03;4.07;;;;;;;;;;5083475;28;20713;-55
2022/03/12 13:58:50;;;;;;;3.70;3.40;;;;;;;;;;5078373;28;20180;-54
2022/03/12 14:01:30;;;;;;;4.63;3.23;;;;;;;;;;5066304;28;20252;-54
2022/03/12 14:03:58;;;;;;;4.07;3.67;;;;;;;;;;5064023;28;20191;-55
2022/03/12 14:06:34;;;;;;;4.07;3.67;;;;;;;;;;5065982;28;20182;-54
2022/03/12 14:09:02;;;;;;;5.03;3.50;;;;;;;;;;5086874;28;20172;-54
2022/03/12 14:11:33;;;;;;;4.10;3.70;;;;;;;;;;5078086;28;20657;-54
2022/03/12 14:14:00;;;;;;;4.00;3.53;;;;;;;;;;5044458;28;20651;-54
2022/03/12 14:16:27;;;;;;;4.00;3.60;;;;;;;;;;5078944;28;20179;-57
2022/03/12 14:19:00;;;;;;;4.47;4.00;;;;;;;;;;5080199;28;20214;-55
2022/03/12 14:21:42;;;;;;;5.07;3.30;;;;;;;;;;5078762;28;20192;-55
2022/03/12 14:24:11;;;;;;;3.80;3.43;;;;;;;;;;5088397;28;20216;-55
2022/03/12 14:26:44;;;;;;;3.73;3.33;;;;;;;;;;5065911;28;20540;-54
2022/03/12 14:29:11;;;;;;;3.80;3.37;;;;;;;;;;5088614;28;20181;-55
2022/03/12 14:31:37;;;;;;;4.00;3.70;;;;;;;;;;5059054;28;20176;-54
2022/03/12 14:34:07;;;;;;;3.37;3.07;;;;;;;;;;5087128;28;20181;-55
2022/03/12 14:36:34;;;;;;;4.10;3.40;;;;;;;;;;5060488;28;20204;-57
2022/03/12 14:39:01;;;;;;;3.73;3.43;;;;;;;;;;5058871;28;20173;-54
2022/03/12 14:41:27;;;;;;;3.67;2.93;;;;;;;;;;5070320;28;20201;-54
2022/03/12 14:43:54;;;;;;;3.80;3.40;;;;;;;;;;5063654;28;20204;-54
2022/03/12 14:46:20;;;;;;;3.57;3.27;;;;;;;;;;5053711;28;20231;-54
2022/03/12 14:48:47;;;;;;;4.50;3.47;;;;;;;;;;5084601;28;20579;-56